Time;durP1;ratioP1;P1;durP2;ratioP2;P2;SDS_P1;SDS_P2;PMS_P1;PMS_P2;Temp;Humidity;BMP_temperature;BMP_pressure;BME280_temperature;BME280_humidity;BME280_pressure;Samples;Min_cycle;Max_cycle;Signal;HPM_P1;HPM_P2
2022/06/06 00:00:00;;;;;;;51.35;19.67;;;16.20;88.30;;;;;;5095528;28;20037;-69
2022/06/06 00:02:28;;;;;;;54.40;20.25;;;16.20;88.20;;;;;;5095304;28;20035;-70
2022/06/06 00:04:53;;;;;;;53.60;20.98;;;16.20;88.30;;;;;;5095260;28;20020;-69
2022/06/06 00:07:20;;;;;;;53.22;20.35;;;16.30;88.30;;;;;;5095232;28;20068;-70
2022/06/06 00:09:45;;;;;;;47.53;19.02;;;16.30;88.20;;;;;;5095185;28;20036;-70
2022/06/06 00:12:11;;;;;;;51.83;19.42;;;16.30;88.10;;;;;;5095071;28;20032;-70
2022/06/06 00:14:37;;;;;;;45.20;18.75;;;16.40;88.10;;;;;;5094979;28;20036;-70
2022/06/06 00:17:03;;;;;;;51.47;19.20;;;16.40;87.90;;;;;;5095157;28;20044;-69
2022/06/06 00:19:28;;;;;;;50.38;18.67;;;16.40;87.60;;;;;;5094972;28;20032;-69
2022/06/06 00:21:55;;;;;;;46.97;18.55;;;16.40;87.60;;;;;;5095016;28;20055;-70
2022/06/06 00:24:20;;;;;;;48.58;19.88;;;16.40;87.50;;;;;;5094915;28;20035;-70
2022/06/06 00:26:46;;;;;;;42.20;16.65;;;16.40;87.60;;;;;;5094733;28;20044;-70
2022/06/06 00:29:17;;;;;;;45.00;16.08;;;16.40;87.50;;;;;;5094701;28;20025;-70
2022/06/06 00:37:14;;;;;;;40.78;17.17;;;16.30;87.90;;;;;;5094745;28;20112;-69
2022/06/06 00:39:42;;;;;;;44.53;17.58;;;16.30;87.90;;;;;;5094626;28;20028;-70
2022/06/06 00:42:19;;;;;;;42.97;16.58;;;16.30;87.80;;;;;;5094533;28;20024;-70
2022/06/06 00:44:46;;;;;;;41.35;16.13;;;16.30;87.90;;;;;;5094565;28;20029;-70
2022/06/06 00:47:24;;;;;;;41.80;15.60;;;16.30;87.90;;;;;;5094397;28;20028;-69
2022/06/06 00:49:57;;;;;;;39.83;15.57;;;16.30;87.80;;;;;;5094482;28;20020;-70
2022/06/06 00:52:26;;;;;;;37.35;15.25;;;16.30;87.90;;;;;;5094294;28;20017;-70
2022/06/06 00:54:57;;;;;;;35.08;15.40;;;16.30;87.80;;;;;;5094212;28;20067;-70
2022/06/06 00:57:29;;;;;;;36.83;15.73;;;16.30;87.80;;;;;;5094150;28;20464;-70
2022/06/06 00:59:55;;;;;;;38.80;14.48;;;16.30;87.90;;;;;;5093187;28;20013;-69
2022/06/06 01:02:21;;;;;;;38.45;15.02;;;16.20;88.00;;;;;;5094161;28;20028;-70
2022/06/06 01:04:47;;;;;;;35.78;15.45;;;16.20;88.20;;;;;;5093961;28;20024;-70
2022/06/06 01:07:14;;;;;;;38.83;15.65;;;16.20;88.40;;;;;;5093817;28;20021;-70
2022/06/06 01:09:42;;;;;;;38.78;15.85;;;16.20;88.40;;;;;;5094004;28;20037;-70
2022/06/06 01:12:13;;;;;;;42.05;17.27;;;16.20;88.60;;;;;;5093904;28;20028;-70
2022/06/06 01:14:47;;;;;;;37.35;15.80;;;16.20;88.80;;;;;;5093864;28;20025;-70
2022/06/06 01:17:22;;;;;;;37.20;15.23;;;16.20;89.10;;;;;;5094022;28;20455;-70
2022/06/06 01:20:08;;;;;;;38.30;15.45;;;16.20;89.20;;;;;;5093733;28;20076;-70
2022/06/06 01:22:42;;;;;;;41.20;15.98;;;16.10;89.60;;;;;;5093896;28;20044;-70
2022/06/06 01:25:23;;;;;;;39.78;15.55;;;16.10;89.70;;;;;;5093886;28;20059;-70
2022/06/06 01:28:43;;;;;;;37.95;15.65;;;16.10;89.60;;;;;;5093736;28;20067;-70
2022/06/06 01:31:39;;;;;;;39.70;15.68;;;16.10;90.10;;;;;;5032004;28;20145;-70
2022/06/06 01:34:07;;;;;;;41.55;15.63;;;15.90;90.50;;;;;;5089773;28;20025;-70
2022/06/06 01:36:35;;;;;;;39.45;15.13;;;16.00;90.50;;;;;;5093427;28;20021;-70
2022/06/06 01:39:06;;;;;;;39.92;16.20;;;16.00;90.60;;;;;;5093505;28;20027;-70
2022/06/06 01:41:50;;;;;;;39.58;16.27;;;16.00;90.60;;;;;;5093535;28;20031;-70
2022/06/06 01:44:37;;;;;;;40.10;16.17;;;15.90;90.70;;;;;;5093595;28;20039;-70
2022/06/06 01:47:06;;;;;;;36.63;16.40;;;16.00;90.90;;;;;;5093511;28;20028;-70
2022/06/06 01:49:33;;;;;;;36.17;15.48;;;16.00;90.70;;;;;;5093520;28;20016;-70
2022/06/06 01:52:09;;;;;;;42.60;16.70;;;16.00;90.80;;;;;;5093323;28;20035;-70
2022/06/06 01:54:34;;;;;;;42.15;17.67;;;16.00;90.90;;;;;;5093427;28;20032;-70
2022/06/06 01:57:03;;;;;;;43.50;17.83;;;16.00;90.80;;;;;;5093095;28;20048;-70
2022/06/06 01:59:29;;;;;;;42.05;17.10;;;16.00;90.80;;;;;;5093221;28;20020;-70
2022/06/06 02:01:55;;;;;;;49.58;18.65;;;16.00;90.90;;;;;;5092194;28;20067;-71
2022/06/06 02:04:20;;;;;;;50.10;19.85;;;16.00;91.00;;;;;;5093195;28;20028;-70
2022/06/06 02:06:46;;;;;;;49.20;19.13;;;16.00;90.90;;;;;;5093189;28;20101;-70
2022/06/06 02:09:12;;;;;;;49.97;18.45;;;16.00;90.90;;;;;;5093187;28;20025;-70
2022/06/06 02:11:38;;;;;;;44.92;18.65;;;16.10;90.80;;;;;;5093119;28;20025;-70
2022/06/06 02:14:05;;;;;;;52.60;20.70;;;16.00;90.90;;;;;;5093071;28;20124;-70
2022/06/06 02:16:31;;;;;;;65.60;21.92;;;16.00;90.90;;;;;;5093090;28;20029;-70
2022/06/06 02:18:56;;;;;;;54.72;20.90;;;16.10;90.80;;;;;;5096419;28;20570;-70
2022/06/06 02:21:22;;;;;;;55.90;21.60;;;16.20;90.60;;;;;;5097311;28;20035;-70
2022/06/06 02:23:48;;;;;;;56.17;22.95;;;16.20;90.60;;;;;;5097170;28;20032;-70
2022/06/06 02:26:14;;;;;;;59.30;20.98;;;16.20;90.60;;;;;;5097174;28;20032;-70
2022/06/06 02:28:40;;;;;;;61.40;22.48;;;16.20;90.50;;;;;;5097044;28;20031;-70
2022/06/06 02:31:06;;;;;;;63.25;22.33;;;16.20;90.50;;;;;;5096033;28;20091;-70
2022/06/06 02:33:32;;;;;;;58.88;23.00;;;16.30;90.50;;;;;;5096977;28;20032;-70
2022/06/06 02:36:00;;;;;;;65.72;23.80;;;16.20;90.50;;;;;;5097077;28;20021;-71
2022/06/06 02:38:27;;;;;;;63.40;23.85;;;16.20;90.50;;;;;;5095914;28;20036;-71
2022/06/06 02:40:53;;;;;;;55.30;21.90;;;16.20;90.50;;;;;;5096844;28;20033;-71
2022/06/06 02:43:21;;;;;;;57.13;23.40;;;16.30;90.40;;;;;;5096848;28;20032;-70
2022/06/06 02:45:48;;;;;;;59.78;23.40;;;16.30;90.50;;;;;;5096750;28;20088;-71
2022/06/06 02:48:14;;;;;;;59.15;22.85;;;16.30;90.40;;;;;;5096714;28;20038;-70
2022/06/06 02:50:42;;;;;;;57.83;22.15;;;16.30;90.50;;;;;;5096638;28;20020;-70
2022/06/06 02:53:07;;;;;;;51.05;22.10;;;16.30;90.50;;;;;;5096613;28;20028;-71
2022/06/06 02:55:34;;;;;;;53.80;22.73;;;16.20;90.60;;;;;;5096518;28;20024;-70
2022/06/06 02:58:01;;;;;;;49.45;19.75;;;16.20;90.60;;;;;;5096355;28;20048;-71
2022/06/06 03:00:30;;;;;;;52.95;20.40;;;16.20;90.70;;;;;;5096462;28;20017;-70
2022/06/06 03:02:56;;;;;;;51.22;20.13;;;16.20;90.70;;;;;;5096409;28;20029;-71
2022/06/06 03:05:30;;;;;;;51.17;19.40;;;16.20;90.80;;;;;;5096382;28;20024;-70
2022/06/06 03:08:10;;;;;;;48.97;19.58;;;16.10;90.90;;;;;;5096502;28;20027;-70
2022/06/06 03:11:06;;;;;;;49.70;20.80;;;16.10;91.00;;;;;;5096488;28;20039;-70
2022/06/06 03:13:34;;;;;;;47.72;18.58;;;16.10;91.00;;;;;;5096282;28;20055;-70
2022/06/06 03:22:11;;;;;;;47.38;19.77;;;16.00;90.90;;;;;;5096207;28;20127;-70
2022/06/06 03:25:01;;;;;;;51.42;20.58;;;15.90;91.10;;;;;;5096082;28;20111;-70
2022/06/06 03:27:39;;;;;;;55.45;21.70;;;15.90;91.10;;;;;;5095998;28;20036;-70
2022/06/06 03:30:19;;;;;;;51.58;20.90;;;16.00;91.10;;;;;;5095675;28;20024;-70
2022/06/06 03:32:58;;;;;;;57.97;22.50;;;15.90;91.10;;;;;;5096082;28;20025;-70
2022/06/06 03:35:24;;;;;;;55.50;21.65;;;15.90;90.90;;;;;;5095786;28;20031;-70
2022/06/06 03:38:11;;;;;;;53.00;22.83;;;15.90;90.90;;;;;;5095828;28;20132;-70
2022/06/06 03:41:07;;;;;;;56.20;21.88;;;15.90;90.90;;;;;;5095817;28;20024;-70
2022/06/06 03:43:48;;;;;;;57.83;21.65;;;16.00;90.80;;;;;;5095782;28;20036;-70
2022/06/06 03:46:32;;;;;;;52.90;21.05;;;15.90;90.60;;;;;;5095783;28;20016;-70
2022/06/06 03:49:15;;;;;;;48.08;20.60;;;15.90;90.60;;;;;;5095538;28;20028;-70
2022/06/06 03:52:10;;;;;;;51.05;20.45;;;15.90;90.70;;;;;;5095686;28;20478;-70
2022/06/06 03:54:57;;;;;;;48.38;20.88;;;15.90;90.80;;;;;;5095580;28;20028;-70
2022/06/06 03:57:25;;;;;;;49.33;20.45;;;15.90;90.70;;;;;;5095269;28;20051;-70
2022/06/06 03:59:56;;;;;;;51.25;19.42;;;15.90;90.70;;;;;;5095395;28;20050;-70
2022/06/06 04:02:31;;;;;;;47.80;17.73;;;15.80;90.70;;;;;;5095376;28;20024;-70
2022/06/06 04:05:00;;;;;;;48.45;19.88;;;15.80;90.50;;;;;;5095371;28;20059;-70
2022/06/06 04:07:25;;;;;;;47.45;20.65;;;15.80;90.60;;;;;;5095270;28;20096;-70
2022/06/06 04:09:52;;;;;;;47.78;20.08;;;15.80;90.40;;;;;;5095133;28;20028;-70
2022/06/06 04:12:52;;;;;;;48.42;19.58;;;15.80;90.50;;;;;;5095150;28;20021;-70
2022/06/06 04:15:30;;;;;;;45.08;19.30;;;15.80;90.10;;;;;;5095090;28;20029;-70
2022/06/06 04:18:26;;;;;;;45.65;18.75;;;15.80;90.20;;;;;;5095008;28;20031;-70
2022/06/06 04:21:10;;;;;;;42.75;18.48;;;15.80;90.20;;;;;;5095149;28;20032;-70
2022/06/06 04:23:38;;;;;;;41.92;19.30;;;15.70;90.10;;;;;;5094991;28;20052;-70
2022/06/06 04:26:14;;;;;;;44.30;18.48;;;15.80;90.10;;;;;;5094845;28;20028;-70
2022/06/06 04:28:54;;;;;;;40.65;17.77;;;15.70;89.70;;;;;;5094931;28;20023;-70
2022/06/06 04:31:35;;;;;;;42.90;18.85;;;15.70;89.50;;;;;;5094808;28;20061;-70
2022/06/06 04:34:18;;;;;;;38.88;17.83;;;15.70;88.90;;;;;;5094750;28;20104;-70
2022/06/06 04:36:57;;;;;;;36.63;16.75;;;15.70;88.80;;;;;;5094807;28;20056;-70
2022/06/06 04:39:49;;;;;;;36.65;16.77;;;15.70;88.40;;;;;;5094772;28;20031;-70
2022/06/06 04:42:40;;;;;;;40.22;18.00;;;15.70;88.40;;;;;;5094556;28;20028;-71
2022/06/06 04:45:29;;;;;;;36.15;16.88;;;15.60;87.80;;;;;;5094524;28;20020;-71
2022/06/06 04:47:56;;;;;;;34.58;16.75;;;15.60;88.20;;;;;;5094475;28;20032;-70
2022/06/06 04:50:22;;;;;;;38.00;16.98;;;15.60;88.40;;;;;;5094408;28;20029;-70
2022/06/06 04:52:53;;;;;;;34.30;16.92;;;15.60;88.50;;;;;;5094348;28;20407;-70
2022/06/06 04:55:21;;;;;;;36.55;16.60;;;15.50;88.30;;;;;;5094369;28;20025;-70
2022/06/06 04:57:51;;;;;;;32.42;15.73;;;15.50;88.20;;;;;;5093098;28;20049;-70
2022/06/06 05:00:16;;;;;;;32.65;15.18;;;15.50;87.90;;;;;;5094273;28;20032;-71
2022/06/06 05:02:42;;;;;;;33.30;15.32;;;15.50;87.30;;;;;;5094114;28;20021;-70
2022/06/06 05:05:09;;;;;;;29.42;14.40;;;15.50;87.00;;;;;;5094053;28;20024;-70
2022/06/06 05:08:19;;;;;;;26.67;13.88;;;15.40;87.00;;;;;;5094070;28;20021;-70
2022/06/06 05:11:15;;;;;;;29.13;13.32;;;15.40;87.00;;;;;;5094113;28;20051;-71
2022/06/06 05:14:06;;;;;;;27.58;14.00;;;15.30;86.70;;;;;;5093876;28;20032;-70
2022/06/06 05:16:59;;;;;;;30.02;13.75;;;15.40;86.50;;;;;;5093919;28;20021;-70
2022/06/06 05:19:50;;;;;;;27.88;13.38;;;15.40;86.30;;;;;;5093838;28;20051;-70
2022/06/06 05:22:39;;;;;;;26.15;13.48;;;15.30;86.50;;;;;;5093944;28;20016;-70
2022/06/06 05:25:31;;;;;;;27.60;13.25;;;15.40;86.20;;;;;;5093752;28;20024;-70
2022/06/06 05:28:37;;;;;;;28.15;13.73;;;15.40;86.20;;;;;;5093633;28;20024;-70
2022/06/06 05:31:40;;;;;;;28.15;14.90;;;15.40;86.00;;;;;;5093673;28;20024;-70
2022/06/06 05:34:14;;;;;;;32.40;16.02;;;15.30;85.20;;;;;;5093517;28;20148;-70
2022/06/06 05:36:58;;;;;;;29.65;15.27;;;15.30;85.60;;;;;;5093592;28;20024;-69
2022/06/06 05:40:07;;;;;;;27.20;14.98;;;15.30;85.20;;;;;;5093676;28;20021;-70
2022/06/06 05:43:04;;;;;;;26.52;13.55;;;15.30;84.80;;;;;;5093533;28;20016;-70
2022/06/06 05:45:53;;;;;;;27.92;15.18;;;15.30;84.50;;;;;;5093488;28;20063;-70
2022/06/06 05:48:18;;;;;;;25.42;13.52;;;15.30;84.90;;;;;;5093485;28;20031;-70
2022/06/06 05:51:11;;;;;;;28.70;14.82;;;15.30;84.10;;;;;;5093359;28;20024;-70
2022/06/06 05:53:55;;;;;;;;;;;15.40;83.30;;;;;;5093668;28;20036;-70
2022/06/06 05:56:57;;;;;;;33.33;15.52;;;15.40;84.30;;;;;;5092928;28;19905;-71
2022/06/06 05:59:44;;;;;;;31.17;14.50;;;15.30;83.70;;;;;;5093277;28;20037;-71
2022/06/06 06:02:22;;;;;;;28.55;16.38;;;15.30;84.10;;;;;;5093301;28;20039;-71
2022/06/06 06:05:12;;;;;;;31.20;15.88;;;15.30;84.10;;;;;;5093361;28;20063;-71
2022/06/06 06:07:42;;;;;;;29.98;17.00;;;15.40;83.60;;;;;;5093354;28;20044;-70
2022/06/06 06:10:36;;;;;;;28.77;15.65;;;15.40;83.30;;;;;;5093307;28;20013;-70
2022/06/06 06:13:23;;;;;;;27.10;15.57;;;15.40;83.20;;;;;;5087261;28;20067;-70
2022/06/06 06:15:53;;;;;;;28.60;15.20;;;15.40;83.40;;;;;;5093181;28;20062;-70
2022/06/06 06:18:26;;;;;;;25.70;14.18;;;15.40;83.20;;;;;;5093120;28;20089;-69
2022/06/06 06:21:04;;;;;;;25.42;14.52;;;15.40;82.70;;;;;;5093087;28;20028;-70
2022/06/06 06:23:34;;;;;;;24.58;14.07;;;15.50;82.20;;;;;;5093120;28;20020;-70
2022/06/06 06:26:03;;;;;;;24.38;14.75;;;15.50;83.30;;;;;;5093082;28;20020;-69
2022/06/06 06:28:33;;;;;;;21.90;14.18;;;15.50;81.90;;;;;;5092904;28;20024;-69
2022/06/06 06:31:02;;;;;;;23.95;13.98;;;15.50;82.00;;;;;;5092948;28;20383;-70
2022/06/06 06:33:57;;;;;;;23.48;14.15;;;15.60;82.20;;;;;;5092866;28;20084;-70
2022/06/06 06:36:23;;;;;;;20.55;13.20;;;15.70;81.80;;;;;;5093110;28;20031;-70
2022/06/06 06:39:19;;;;;;;21.80;13.30;;;15.70;81.90;;;;;;5093009;28;20029;-70
2022/06/06 06:42:10;;;;;;;19.55;11.77;;;15.80;82.50;;;;;;5092933;28;20043;-70
2022/06/06 06:44:46;;;;;;;18.90;11.88;;;15.80;80.90;;;;;;5093023;28;20028;-70
2022/06/06 06:47:18;;;;;;;17.55;10.63;;;15.80;79.00;;;;;;5092832;28;20025;-70
2022/06/06 06:50:00;;;;;;;17.92;12.02;;;15.80;80.10;;;;;;5092791;28;20028;-71
2022/06/06 06:52:50;;;;;;;20.60;13.13;;;15.90;80.40;;;;;;5092880;28;20025;-71
2022/06/06 06:55:16;;;;;;;20.10;12.07;;;15.90;79.90;;;;;;5092703;28;20025;-71
2022/06/06 06:58:08;;;;;;;18.30;11.65;;;15.90;80.10;;;;;;5092563;28;20070;-71
2022/06/06 07:00:54;;;;;;;16.58;10.25;;;15.90;79.30;;;;;;5092904;28;20032;-71
2022/06/06 07:09:03;;;;;;;15.00;9.82;;;16.00;78.60;;;;;;5096346;28;20050;-71
2022/06/06 07:11:44;;;;;;;17.95;9.93;;;16.10;77.60;;;;;;5096283;28;20044;-71
2022/06/06 07:14:16;;;;;;;12.73;9.25;;;16.10;76.00;;;;;;5096213;28;20024;-71
2022/06/06 07:16:42;;;;;;;14.30;9.60;;;16.00;77.10;;;;;;5096360;28;20044;-71
2022/06/06 07:19:16;;;;;;;13.75;8.38;;;16.00;78.00;;;;;;5096112;28;20282;-68
2022/06/06 07:21:45;;;;;;;14.02;7.93;;;16.10;77.00;;;;;;5096101;28;20067;-68
2022/06/06 07:24:15;;;;;;;8.82;6.47;;;16.00;76.20;;;;;;5096064;28;20194;-68
2022/06/06 07:26:43;;;;;;;8.60;6.30;;;16.00;76.80;;;;;;5096125;28;20051;-68
2022/06/06 07:29:16;;;;;;;9.98;5.90;;;16.00;76.70;;;;;;5095846;28;20061;-68
2022/06/06 07:31:59;;;;;;;;;;;16.10;75.90;;;;;;5096387;28;20016;-68
2022/06/06 07:34:50;;;;;;;6.63;4.10;;;16.30;73.90;;;;;;5095925;28;19922;-69
2022/06/06 07:37:37;;;;;;;9.18;4.18;;;16.10;74.10;;;;;;5095856;28;20064;-69
2022/06/06 07:40:26;;;;;;;8.10;4.60;;;16.10;73.80;;;;;;5095748;28;20032;-69
2022/06/06 07:43:12;;;;;;;12.40;4.28;;;16.10;74.30;;;;;;5095681;28;20023;-68
2022/06/06 07:45:40;;;;;;;7.40;4.43;;;16.20;74.10;;;;;;5095700;28;20036;-68
2022/06/06 07:48:47;;;;;;;7.13;3.72;;;16.20;73.70;;;;;;5095603;28;20028;-68
2022/06/06 07:51:53;;;;;;;5.15;3.50;;;16.20;72.70;;;;;;5095745;28;20043;-69
2022/06/06 07:54:58;;;;;;;5.70;3.15;;;16.30;73.70;;;;;;5033649;28;20030;-70
2022/06/06 07:57:31;;;;;;;3.72;2.55;;;16.30;72.40;;;;;;5095162;28;20036;-71
2022/06/06 08:00:18;;;;;;;3.65;2.45;;;16.40;73.50;;;;;;5095317;28;20033;-69
2022/06/06 08:03:04;;;;;;;7.15;2.92;;;16.30;72.30;;;;;;5095353;28;20039;-68
2022/06/06 08:05:39;;;;;;;6.38;2.97;;;16.30;72.10;;;;;;5095348;28;20025;-68
2022/06/06 08:08:30;;;;;;;3.83;2.30;;;16.30;71.20;;;;;;5095230;28;20028;-68
2022/06/06 08:11:02;;;;;;;3.03;1.98;;;16.40;71.20;;;;;;5094199;28;20028;-68
2022/06/06 08:13:42;;;;;;;3.55;2.40;;;16.30;71.60;;;;;;5095129;28;20040;-67
2022/06/06 08:16:24;;;;;;;3.97;2.55;;;16.30;71.60;;;;;;5094030;28;20029;-67
2022/06/06 08:19:20;;;;;;;4.10;2.38;;;16.30;71.70;;;;;;5095100;28;20013;-68
2022/06/06 08:21:48;;;;;;;5.97;2.67;;;16.30;70.70;;;;;;5095148;28;20099;-68
2022/06/06 08:24:38;;;;;;;4.85;2.70;;;16.40;71.50;;;;;;5094967;28;20024;-68
2022/06/06 08:27:06;;;;;;;4.28;2.83;;;16.40;71.30;;;;;;5094857;28;20054;-68
2022/06/06 08:29:35;;;;;;;4.35;3.10;;;16.50;71.70;;;;;;5094762;28;20024;-68
2022/06/06 08:32:01;;;;;;;4.07;3.47;;;16.50;71.20;;;;;;5094769;28;20050;-68
2022/06/06 08:34:27;;;;;;;5.10;3.70;;;16.50;69.60;;;;;;5093559;28;20042;-68
2022/06/06 08:37:20;;;;;;;4.63;3.50;;;16.50;70.60;;;;;;5094787;28;20032;-68
2022/06/06 08:40:14;;;;;;;5.47;3.38;;;16.50;69.70;;;;;;5094736;28;20052;-68
2022/06/06 08:43:17;;;;;;;3.17;2.75;;;16.50;70.20;;;;;;5094591;28;20032;-68
2022/06/06 08:45:51;;;;;;;4.30;2.72;;;16.50;70.00;;;;;;5094585;28;20025;-68
2022/06/06 08:48:32;;;;;;;5.43;3.55;;;16.50;70.50;;;;;;5094413;28;20048;-68
2022/06/06 08:51:19;;;;;;;3.63;3.22;;;16.50;71.10;;;;;;5094420;28;20055;-69
2022/06/06 08:54:11;;;;;;;4.20;2.80;;;16.60;71.60;;;;;;5094422;28;20025;-68
2022/06/06 08:57:38;;;;;;;3.83;2.72;;;16.70;71.60;;;;;;5065906;28;20044;-68
2022/06/06 09:00:20;;;;;;;5.90;3.65;;;16.70;70.30;;;;;;5032313;28;20063;-68
2022/06/06 09:03:30;;;;;;;3.25;2.90;;;16.80;71.10;;;;;;5094308;28;20036;-68
2022/06/06 09:06:15;;;;;;;4.65;3.28;;;16.90;69.90;;;;;;5094236;28;20036;-68
2022/06/06 09:08:56;;;;;;;7.57;3.28;;;16.90;70.00;;;;;;5094074;28;20028;-68
2022/06/06 09:12:04;;;;;;;4.82;3.22;;;16.90;70.80;;;;;;5094159;28;20017;-68
2022/06/06 09:14:45;;;;;;;4.28;2.75;;;17.00;71.60;;;;;;5093866;28;20029;-68
2022/06/06 09:17:48;;;;;;;5.72;3.38;;;17.10;72.20;;;;;;5093872;28;20076;-68
2022/06/06 09:20:32;;;;;;;5.30;2.67;;;17.10;71.80;;;;;;5093800;28;20031;-68
2022/06/06 09:23:16;;;;;;;3.33;1.98;;;17.10;70.50;;;;;;5092743;28;20032;-68
2022/06/06 09:25:58;;;;;;;2.40;1.77;;;17.00;69.70;;;;;;5093786;28;20035;-68
2022/06/06 09:28:26;;;;;;;3.38;2.20;;;17.10;69.60;;;;;;5093680;28;20025;-68
2022/06/06 09:31:19;;;;;;;4.03;1.98;;;17.20;69.50;;;;;;5092642;28;20044;-68
2022/06/06 09:34:03;;;;;;;2.90;1.67;;;17.50;70.50;;;;;;5093687;28;20028;-68
2022/06/06 09:36:40;;;;;;;3.58;1.67;;;17.60;68.90;;;;;;5093730;28;20020;-69
2022/06/06 09:39:31;;;;;;;4.15;2.00;;;17.50;65.30;;;;;;5092618;28;20071;-69
2022/06/06 09:42:03;;;;;;;3.55;1.83;;;17.50;67.20;;;;;;5093533;28;20032;-68
2022/06/06 09:44:28;;;;;;;5.07;2.30;;;17.60;67.50;;;;;;5093512;28;20058;-69
2022/06/06 09:47:15;;;;;;;3.33;2.38;;;17.70;67.60;;;;;;5093467;28;20028;-70
2022/06/06 09:50:19;;;;;;;5.65;2.00;;;17.70;68.10;;;;;;5093638;28;20028;-71
2022/06/06 09:53:18;;;;;;;3.35;1.90;;;17.70;67.80;;;;;;5093458;28;20035;-71
2022/06/06 09:59:05;;;;;;;5.68;2.13;;;17.60;67.20;;;;;;5093277;28;20055;-71
2022/06/06 10:01:49;;;;;;;2.75;1.83;;;17.20;71.50;;;;;;5093496;28;20024;-71
2022/06/06 10:04:21;;;;;;;4.88;2.22;;;17.10;74.60;;;;;;5092321;28;20036;-69
2022/06/06 10:07:24;;;;;;;3.08;2.42;;;17.10;74.50;;;;;;5093302;28;20032;-69
2022/06/06 10:10:08;;;;;;;4.75;1.88;;;17.00;75.40;;;;;;5093160;28;20088;-69
2022/06/06 10:12:42;;;;;;;4.53;1.88;;;17.10;75.60;;;;;;5093263;28;20091;-69
2022/06/06 10:15:29;;;;;;;2.72;1.50;;;17.20;74.60;;;;;;5093032;28;20036;-69
2022/06/06 10:18:33;;;;;;;5.90;1.90;;;17.30;74.20;;;;;;5093216;28;20020;-69
2022/06/06 10:21:40;;;;;;;4.22;1.92;;;17.60;76.40;;;;;;5091133;28;20033;-69
2022/06/06 10:24:30;;;;;;;5.25;1.70;;;17.80;70.80;;;;;;5093239;28;20073;-69
2022/06/06 10:27:12;;;;;;;2.42;1.45;;;18.00;69.70;;;;;;5093089;28;20031;-69
2022/06/06 10:30:12;;;;;;;3.10;1.57;;;18.10;69.70;;;;;;5092990;28;20403;-69
2022/06/06 10:32:56;;;;;;;2.95;2.53;;;18.30;69.20;;;;;;5092998;28;20025;-69
2022/06/06 10:35:29;;;;;;;2.53;1.92;;;18.30;68.40;;;;;;5092864;28;20035;-69
2022/06/06 10:38:26;;;;;;;2.97;1.67;;;18.20;67.80;;;;;;5093085;28;20016;-68
2022/06/06 10:41:17;;;;;;;4.63;2.10;;;18.20;66.60;;;;;;5097075;28;20031;-68
2022/06/06 10:44:01;;;;;;;4.18;1.58;;;18.20;68.60;;;;;;5096744;28;20020;-69
2022/06/06 10:46:32;;;;;;;2.20;1.40;;;18.10;65.70;;;;;;5096864;28;20039;-69
2022/06/06 10:49:24;;;;;;;2.70;1.60;;;18.30;66.30;;;;;;5096724;28;20029;-69
2022/06/06 10:52:32;;;;;;;2.45;1.30;;;18.30;67.10;;;;;;5088309;28;20024;-69
2022/06/06 10:55:01;;;;;;;1.65;1.40;;;18.50;63.60;;;;;;5096749;28;20054;-68
2022/06/06 10:57:46;;;;;;;1.85;1.30;;;18.50;63.80;;;;;;5095365;28;20119;-69
2022/06/06 11:00:28;;;;;;;2.83;1.63;;;18.40;62.30;;;;;;5096694;28;20024;-69
2022/06/06 11:03:16;;;;;;;2.55;1.40;;;18.40;64.60;;;;;;5096565;28;20031;-69
2022/06/06 11:05:41;;;;;;;3.40;1.50;;;18.60;65.60;;;;;;5096388;28;20044;-69
2022/06/06 11:08:22;;;;;;;3.75;1.42;;;18.70;65.70;;;;;;5096364;28;20036;-69
2022/06/06 11:11:12;;;;;;;4.10;1.52;;;18.80;65.50;;;;;;5096306;28;20052;-69
2022/06/06 11:13:59;;;;;;;1.73;1.17;;;19.10;67.30;;;;;;5096265;28;20031;-69
2022/06/06 11:16:36;;;;;;;2.13;1.40;;;19.30;62.20;;;;;;5096301;28;20024;-70
2022/06/06 11:19:21;;;;;;;1.75;1.33;;;19.20;61.70;;;;;;5096359;28;20024;-70
2022/06/06 11:22:13;;;;;;;4.97;1.77;;;19.20;60.60;;;;;;5096195;28;20107;-70
2022/06/06 11:24:52;;;;;;;3.72;1.30;;;19.30;62.10;;;;;;5096108;28;20029;-70
2022/06/06 11:27:40;;;;;;;1.50;1.25;;;19.30;60.10;;;;;;5096091;28;20025;-70
2022/06/06 11:30:12;;;;;;;1.98;1.25;;;19.40;58.40;;;;;;5096021;28;20031;-69
2022/06/06 11:32:52;;;;;;;1.73;1.20;;;19.50;63.40;;;;;;5096061;28;20032;-69
2022/06/06 11:35:40;;;;;;;2.97;1.33;;;19.60;59.00;;;;;;5095910;28;20128;-69
2022/06/06 11:38:34;;;;;;;2.10;1.30;;;19.50;60.00;;;;;;5095900;28;20027;-69
2022/06/06 11:41:15;;;;;;;2.88;1.45;;;19.40;59.50;;;;;;5095877;28;20076;-69
2022/06/06 11:43:52;;;;;;;1.58;1.35;;;19.10;58.40;;;;;;5095814;28;20072;-69
2022/06/06 11:46:47;;;;;;;4.30;1.48;;;18.90;59.10;;;;;;5095697;28;20017;-69
2022/06/06 11:49:32;;;;;;;2.38;1.25;;;18.80;60.80;;;;;;5095556;28;20025;-69
2022/06/06 11:52:27;;;;;;;1.77;1.42;;;18.70;60.20;;;;;;5095623;28;20084;-69
2022/06/06 11:55:09;;;;;;;1.95;1.65;;;18.80;63.70;;;;;;5095552;28;20103;-69
2022/06/06 11:57:54;;;;;;;4.40;1.80;;;19.00;62.20;;;;;;5095452;28;20032;-69
2022/06/06 12:00:46;;;;;;;1.75;1.42;;;19.00;62.30;;;;;;5095453;28;20021;-69
2022/06/06 12:03:30;;;;;;;2.22;1.55;;;19.10;61.60;;;;;;5088509;28;20036;-69
2022/06/06 12:06:22;;;;;;;4.47;1.25;;;19.10;62.80;;;;;;5095362;28;20035;-70
2022/06/06 12:09:11;;;;;;;1.88;1.33;;;19.20;59.60;;;;;;5095296;28;20028;-70
2022/06/06 12:12:03;;;;;;;5.47;1.30;;;19.10;57.80;;;;;;5095350;28;20369;-70
2022/06/06 12:14:39;;;;;;;3.95;1.60;;;19.00;58.10;;;;;;5070902;28;20088;-69
2022/06/06 12:17:10;;;;;;;4.05;1.55;;;19.00;60.50;;;;;;5095137;28;20027;-69
2022/06/06 12:20:12;;;;;;;4.03;1.20;;;19.00;60.30;;;;;;5094994;28;20046;-69
2022/06/06 12:23:01;;;;;;;2.03;1.17;;;18.90;59.00;;;;;;5095146;28;20067;-70
2022/06/06 12:25:27;;;;;;;1.65;1.35;;;18.80;57.80;;;;;;5095073;28;20099;-69
2022/06/06 12:28:14;;;;;;;2.55;1.23;;;18.70;58.50;;;;;;5094820;28;20020;-69
2022/06/06 12:31:17;;;;;;;1.60;1.10;;;18.80;57.30;;;;;;5094883;28;20076;-69
2022/06/06 12:33:54;;;;;;;1.77;1.25;;;18.60;56.50;;;;;;5094673;28;20024;-69
2022/06/06 12:36:23;;;;;;;1.27;0.98;;;18.70;58.80;;;;;;5094761;28;20040;-68
2022/06/06 12:38:51;;;;;;;3.78;1.58;;;18.60;57.70;;;;;;5094679;28;20024;-69
2022/06/06 12:41:29;;;;;;;7.38;4.45;;;18.70;59.30;;;;;;5094616;28;20028;-68
2022/06/06 12:44:04;;;;;;;7.07;4.60;;;18.80;59.10;;;;;;5094560;28;20122;-68
2022/06/06 12:46:53;;;;;;;5.97;2.47;;;18.70;59.50;;;;;;5094668;28;20102;-68
2022/06/06 12:49:40;;;;;;;2.72;1.48;;;18.80;60.30;;;;;;5093467;28;20029;-68
2022/06/06 12:52:19;;;;;;;3.60;1.52;;;18.80;59.50;;;;;;5094376;28;20025;-68
2022/06/06 12:58:17;;;;;;;2.30;1.48;;;18.80;63.90;;;;;;5094127;28;20040;-68
2022/06/06 13:03:57;;;;;;;3.38;1.35;;;18.80;62.00;;;;;;5094440;28;20058;-68
2022/06/06 13:06:54;;;;;;;2.08;1.17;;;18.70;62.30;;;;;;5093285;28;20452;-68
2022/06/06 13:09:57;;;;;;;5.85;1.60;;;18.70;61.90;;;;;;5094086;28;20061;-70
2022/06/06 13:12:34;;;;;;;;;;;18.70;62.90;;;;;;5094471;28;20044;-70
2022/06/06 13:15:05;;;;;;;2.88;1.50;;;18.70;61.40;;;;;;5092960;28;19915;-70
2022/06/06 13:17:52;;;;;;;1.75;1.42;;;18.60;60.80;;;;;;5094021;28;20023;-71
2022/06/06 13:20:35;;;;;;;1.98;1.23;;;18.60;62.00;;;;;;5093933;28;20051;-71
2022/06/06 13:23:17;;;;;;;2.13;1.20;;;18.60;61.00;;;;;;5093980;28;20080;-71
2022/06/06 13:26:16;;;;;;;3.40;1.40;;;18.60;60.80;;;;;;5093894;28;20025;-71
2022/06/06 13:28:51;;;;;;;2.85;1.40;;;18.70;62.20;;;;;;5093664;28;20024;-71
2022/06/06 13:31:28;;;;;;;1.83;1.30;;;18.60;59.40;;;;;;5093859;28;20016;-71
2022/06/06 13:34:18;;;;;;;2.75;1.02;;;18.40;60.30;;;;;;5093740;28;20028;-71
2022/06/06 13:37:14;;;;;;;3.10;1.27;;;18.40;60.00;;;;;;5093712;28;20028;-71
2022/06/06 13:40:05;;;;;;;2.45;1.50;;;18.40;61.40;;;;;;5092624;28;20029;-71
2022/06/06 13:42:55;;;;;;;3.50;1.55;;;18.30;62.30;;;;;;5093715;28;20020;-71
2022/06/06 13:45:39;;;;;;;3.00;1.20;;;18.10;62.60;;;;;;5093515;28;20033;-71
2022/06/06 13:48:11;;;;;;;1.85;1.40;;;17.90;62.40;;;;;;5093502;28;20029;-71
2022/06/06 13:50:54;;;;;;;2.67;1.50;;;17.80;62.90;;;;;;5093452;28;20025;-71
2022/06/06 13:53:44;;;;;;;2.60;1.38;;;17.70;63.70;;;;;;5093489;28;20031;-71
2022/06/06 13:56:46;;;;;;;4.93;1.35;;;17.70;64.40;;;;;;5093476;28;20027;-71
2022/06/06 13:59:39;;;;;;;1.98;1.42;;;17.60;64.40;;;;;;5093271;28;20055;-71
2022/06/06 14:02:26;;;;;;;2.10;1.50;;;17.50;64.60;;;;;;5093501;28;20028;-71
2022/06/06 14:05:13;;;;;;;1.67;1.40;;;17.60;66.30;;;;;;5093292;28;20079;-71
2022/06/06 14:07:41;;;;;;;3.13;1.75;;;17.70;67.00;;;;;;5093298;28;20035;-71
2022/06/06 14:10:13;;;;;;;2.75;1.33;;;17.80;66.90;;;;;;5093194;28;20032;-71